createdAt,value
2022-12-16T00:01:11.023Z,23.60
2022-12-16T00:15:10.979Z,22.30
2022-12-16T00:29:10.985Z,21.20
2022-12-16T00:43:10.960Z,19.40
2022-12-16T00:57:10.981Z,17.80
2022-12-16T01:11:11.108Z,16.80
2022-12-16T01:25:11.141Z,15.30
2022-12-16T01:39:11.124Z,14.20
2022-12-16T01:53:11.112Z,13.20
2022-12-16T02:07:11.127Z,12.10
2022-12-16T02:21:11.135Z,11.70
2022-12-16T02:35:11.136Z,10.90
2022-12-16T02:49:11.144Z,10.20
2022-12-16T03:03:11.228Z,9.30
2022-12-16T03:17:11.213Z,11.60
2022-12-16T03:31:11.210Z,12.70
2022-12-16T03:45:11.221Z,12.90
2022-12-16T03:59:11.209Z,11.60
2022-12-16T04:13:11.238Z,11.10
2022-12-16T04:27:15.260Z,10.10
2022-12-16T04:41:11.222Z,9.80
2022-12-16T04:55:11.221Z,8.90
2022-12-16T05:09:11.252Z,8.50
2022-12-16T05:23:11.252Z,7.80
2022-12-16T05:37:11.272Z,7.20
2022-12-16T05:51:11.619Z,6.70
2022-12-16T06:05:11.739Z,6.60
2022-12-16T06:19:11.724Z,6.30
2022-12-16T06:33:11.729Z,6.20
2022-12-16T06:47:11.833Z,5.90
2022-12-16T07:02:11.780Z,5.10
2022-12-16T07:17:16.853Z,4.90
2022-12-16T07:32:11.757Z,4.80
2022-12-16T07:47:11.731Z,4.50
2022-12-16T08:02:11.811Z,4.10
2022-12-16T08:17:12.227Z,4.00
2022-12-16T08:32:12.452Z,3.90
2022-12-16T08:48:12.462Z,4.00
2022-12-16T09:03:12.675Z,4.00
2022-12-16T09:18:12.552Z,5.50
2022-12-16T09:34:12.480Z,5.10
2022-12-16T09:50:12.528Z,4.90
2022-12-16T10:05:12.512Z,5.10
2022-12-16T10:20:12.525Z,5.00
2022-12-16T10:35:12.549Z,4.90
2022-12-16T10:50:12.656Z,4.80
2022-12-16T11:06:12.681Z,4.85
2022-12-16T11:21:15.757Z,4.50
2022-12-16T11:36:12.681Z,4.40
2022-12-16T11:51:12.679Z,4.20
2022-12-16T12:06:12.742Z,4.10
2022-12-16T12:21:12.759Z,4.20
2022-12-16T12:36:12.756Z,3.80
2022-12-16T12:51:12.762Z,3.70
2022-12-16T13:07:12.778Z,4.25
2022-12-16T13:22:12.824Z,4.70
2022-12-16T13:37:13.180Z,4.80
2022-12-16T13:52:13.080Z,4.80
2022-12-16T14:07:13.152Z,4.50
2022-12-16T14:23:26.833Z,4.50
2022-12-16T14:38:13.112Z,4.35
2022-12-16T14:53:13.105Z,5.40
2022-12-16T15:08:13.114Z,6.00
2022-12-16T15:24:13.118Z,7.30
2022-12-16T15:39:13.134Z,7.15
2022-12-16T15:55:13.193Z,7.10
2022-12-16T16:11:13.201Z,7.00
2022-12-16T16:25:13.192Z,7.00
2022-12-16T16:39:13.199Z,6.50
2022-12-16T16:53:13.210Z,6.80
2022-12-16T17:07:13.193Z,6.80
2022-12-16T17:21:13.223Z,6.90
2022-12-16T17:35:13.194Z,7.20
2022-12-16T17:49:13.217Z,7.00
2022-12-16T18:03:13.436Z,7.20
2022-12-16T18:18:13.237Z,8.20
2022-12-16T18:32:13.253Z,8.70
2022-12-16T18:46:13.352Z,9.20
2022-12-16T19:00:13.253Z,9.00
2022-12-16T19:14:13.271Z,9.00
2022-12-16T19:28:13.299Z,9.00
2022-12-16T19:42:13.302Z,9.00
2022-12-16T19:56:13.315Z,9.60
2022-12-16T20:10:13.310Z,9.00
2022-12-16T20:24:13.356Z,9.60
2022-12-16T20:38:13.328Z,9.60
2022-12-16T20:52:13.356Z,11.30
2022-12-16T21:06:13.323Z,10.50
2022-12-16T21:20:13.312Z,10.40
2022-12-16T21:34:13.333Z,9.90
2022-12-16T21:48:13.332Z,9.50
2022-12-16T22:02:13.365Z,9.80
2022-12-16T22:16:13.369Z,8.70
2022-12-16T22:30:13.451Z,9.00
2022-12-16T22:44:13.560Z,9.00
2022-12-16T22:58:13.546Z,8.80
2022-12-16T23:12:13.570Z,8.50
2022-12-16T23:26:13.584Z,8.30
2022-12-16T23:40:13.563Z,8.40
2022-12-16T23:54:13.552Z,8.50
